Time;durP1;ratioP1;P1;durP2;ratioP2;P2;SDS_P1;SDS_P2;PMS_P1;PMS_P2;Temp;Humidity;BMP_temperature;BMP_pressure;BME280_temperature;BME280_humidity;BME280_pressure;Samples;Min_cycle;Max_cycle;Signal;HPM_P1;HPM_P2
2024/02/02 00:02:25;;;;;;;7.40;3.92;;;;;;;;;;5038998;28;20039;-72
2024/02/02 00:04:52;;;;;;;5.65;3.92;;;;;;;;;;5047825;28;20048;-71
2024/02/02 00:07:18;;;;;;;5.80;4.57;;;;;;;;;;5036153;28;20062;-70
2024/02/02 00:09:47;;;;;;;7.55;3.80;;;;;;;;;;5015943;28;20025;-70
2024/02/02 00:12:14;;;;;;;5.32;4.18;;;;;;;;;;5033193;28;20088;-71
2024/02/02 00:14:40;;;;;;;6.43;3.80;;;;;;;;;;5036740;28;20025;-71
2024/02/02 00:17:06;;;;;;;8.73;4.82;;;;;;;;;;5035730;28;20036;-71
2024/02/02 00:19:33;;;;;;;11.95;4.55;;;;;;;;;;5041221;28;20026;-70
2024/02/02 00:21:59;;;;;;;7.82;5.00;;;;;;;;;;5036385;28;20029;-71
2024/02/02 00:24:25;;;;;;;7.03;4.45;;;;;;;;;;5023616;28;20045;-71
2024/02/02 00:26:52;;;;;;;7.78;3.88;;;;;;;;;;5019040;28;20036;-70
2024/02/02 00:29:18;;;;;;;10.07;4.38;;;;;;;;;;5033972;28;20571;-71
2024/02/02 00:31:44;;;;;;;8.27;4.22;;;;;;;;;;5024973;28;20599;-70
2024/02/02 00:34:10;;;;;;;6.65;4.10;;;;;;;;;;5039826;28;20033;-72
2024/02/02 00:36:36;;;;;;;4.70;4.18;;;;;;;;;;5039613;28;20534;-71
2024/02/02 00:39:03;;;;;;;6.90;3.95;;;;;;;;;;5021465;28;20447;-71
2024/02/02 00:41:29;;;;;;;9.82;5.10;;;;;;;;;;5028609;28;20029;-71
2024/02/02 00:43:55;;;;;;;8.27;5.05;;;;;;;;;;5035380;28;20052;-70
2024/02/02 00:46:21;;;;;;;6.38;4.07;;;;;;;;;;5042384;28;20108;-70
2024/02/02 00:48:47;;;;;;;11.85;5.05;;;;;;;;;;5039557;28;20364;-70
2024/02/02 00:51:14;;;;;;;5.57;4.18;;;;;;;;;;5039920;28;20026;-71
2024/02/02 00:53:40;;;;;;;7.15;4.30;;;;;;;;;;5045853;28;20503;-70
2024/02/02 00:56:06;;;;;;;9.27;4.25;;;;;;;;;;5034164;28;20526;-70
2024/02/02 00:58:32;;;;;;;6.57;4.63;;;;;;;;;;5016427;28;20484;-71
2024/02/02 01:00:59;;;;;;;9.13;5.03;;;;;;;;;;5040198;28;20071;-71
2024/02/02 01:03:25;;;;;;;14.18;5.28;;;;;;;;;;5024800;28;20025;-71
2024/02/02 01:05:52;;;;;;;5.95;4.53;;;;;;;;;;5040687;28;20055;-71
2024/02/02 01:08:18;;;;;;;7.75;4.50;;;;;;;;;;5041508;28;20539;-71
2024/02/02 01:10:44;;;;;;;5.82;4.28;;;;;;;;;;5042967;28;20703;-71
2024/02/02 01:13:11;;;;;;;6.40;4.20;;;;;;;;;;5019771;28;20060;-71
2024/02/02 01:15:37;;;;;;;9.05;4.60;;;;;;;;;;5019775;28;20025;-70
2024/02/02 01:18:07;;;;;;;6.75;4.88;;;;;;;;;;5032140;28;20584;-70
2024/02/02 01:20:34;;;;;;;5.10;4.00;;;;;;;;;;5025961;28;20025;-70
2024/02/02 01:23:00;;;;;;;7.65;5.22;;;;;;;;;;5038471;28;20107;-70
2024/02/02 01:25:29;;;;;;;5.75;4.10;;;;;;;;;;5043605;28;20226;-71
2024/02/02 01:27:56;;;;;;;9.73;5.47;;;;;;;;;;5045044;28;20112;-65
2024/02/02 01:30:23;;;;;;;8.10;4.80;;;;;;;;;;5036854;28;20029;-65
2024/02/02 01:32:49;;;;;;;8.50;4.50;;;;;;;;;;5040849;28;20532;-67
2024/02/02 01:35:17;;;;;;;5.88;4.10;;;;;;;;;;5038175;28;20119;-65
2024/02/02 01:37:43;;;;;;;6.00;4.25;;;;;;;;;;5044521;28;20071;-67
2024/02/02 01:40:12;;;;;;;6.07;3.88;;;;;;;;;;5037616;28;20055;-66
2024/02/02 01:42:40;;;;;;;7.20;4.55;;;;;;;;;;5045892;28;20025;-65
2024/02/02 01:45:06;;;;;;;3.55;3.22;;;;;;;;;;5034803;28;20040;-65
2024/02/02 01:47:32;;;;;;;5.55;3.83;;;;;;;;;;5036118;28;20044;-65
2024/02/02 01:49:58;;;;;;;3.35;2.97;;;;;;;;;;5025405;28;20365;-65
2024/02/02 01:52:25;;;;;;;4.57;3.63;;;;;;;;;;5040365;28;20025;-66
2024/02/02 01:54:52;;;;;;;9.90;3.33;;;;;;;;;;5020159;28;20063;-69
2024/02/02 01:57:19;;;;;;;5.80;3.88;;;;;;;;;;5036758;28;20009;-66
2024/02/02 01:59:45;;;;;;;5.75;3.92;;;;;;;;;;5046336;28;20448;-66
2024/02/02 02:02:12;;;;;;;6.35;3.70;;;;;;;;;;5042338;28;20029;-66
2024/02/02 02:04:40;;;;;;;5.15;3.55;;;;;;;;;;5029924;28;20086;-66
2024/02/02 02:07:06;;;;;;;6.63;4.18;;;;;;;;;;5037958;28;20045;-66
2024/02/02 02:09:33;;;;;;;7.90;4.05;;;;;;;;;;5042297;28;20025;-65
2024/02/02 02:12:00;;;;;;;9.70;3.97;;;;;;;;;;5036405;28;20025;-66
2024/02/02 02:14:26;;;;;;;7.28;4.10;;;;;;;;;;5042462;28;20030;-66
2024/02/02 02:16:52;;;;;;;6.05;3.90;;;;;;;;;;5028814;28;20524;-66
2024/02/02 02:19:18;;;;;;;7.10;3.92;;;;;;;;;;5041427;28;20033;-65
2024/02/02 02:21:44;;;;;;;4.47;3.20;;;;;;;;;;5041994;28;20033;-66
2024/02/02 02:24:11;;;;;;;8.35;3.35;;;;;;;;;;5036702;28;20144;-66
2024/02/02 02:26:37;;;;;;;4.78;3.40;;;;;;;;;;5027016;28;20419;-66
2024/02/02 02:29:04;;;;;;;5.63;3.35;;;;;;;;;;5034474;28;20492;-67
2024/02/02 02:31:30;;;;;;;6.53;3.35;;;;;;;;;;5047626;28;20032;-66
2024/02/02 02:33:56;;;;;;;6.05;4.00;;;;;;;;;;5021624;28;20021;-66
2024/02/02 02:36:22;;;;;;;5.00;3.58;;;;;;;;;;5044551;28;20021;-66
2024/02/02 02:38:49;;;;;;;4.22;3.40;;;;;;;;;;5041526;28;20047;-65
2024/02/02 02:41:15;;;;;;;4.80;3.38;;;;;;;;;;5039051;28;20105;-66
2024/02/02 02:43:42;;;;;;;5.32;3.25;;;;;;;;;;5029086;28;20036;-66
2024/02/02 02:46:08;;;;;;;4.28;3.33;;;;;;;;;;5029948;28;20024;-66
2024/02/02 02:48:36;;;;;;;5.88;3.60;;;;;;;;;;5039692;28;20033;-66
2024/02/02 02:51:03;;;;;;;4.72;3.38;;;;;;;;;;5044672;28;20032;-66
2024/02/02 02:53:29;;;;;;;4.70;2.72;;;;;;;;;;5045190;28;20013;-66
2024/02/02 02:55:56;;;;;;;3.58;2.63;;;;;;;;;;5046673;28;20104;-66
2024/02/02 02:58:22;;;;;;;4.43;2.65;;;;;;;;;;5048945;28;20033;-66
2024/02/02 03:00:48;;;;;;;4.75;3.10;;;;;;;;;;5033411;28;20028;-66
2024/02/02 03:03:14;;;;;;;3.70;2.65;;;;;;;;;;5043793;28;20388;-65
2024/02/02 03:05:41;;;;;;;4.65;3.22;;;;;;;;;;5039791;28;20025;-65
2024/02/02 03:08:07;;;;;;;3.20;2.30;;;;;;;;;;5036838;28;20052;-66
2024/02/02 03:10:34;;;;;;;3.10;2.60;;;;;;;;;;5037182;28;20728;-65
2024/02/02 03:13:00;;;;;;;3.78;2.88;;;;;;;;;;5046055;28;20028;-66
2024/02/02 03:15:31;;;;;;;3.70;2.90;;;;;;;;;;5023782;28;20055;-66
2024/02/02 03:17:57;;;;;;;6.70;4.20;;;;;;;;;;5033648;28;20459;-66
2024/02/02 03:20:26;;;;;;;3.85;2.85;;;;;;;;;;5045880;28;20358;-66
2024/02/02 03:22:53;;;;;;;4.43;3.03;;;;;;;;;;5042367;28;20268;-66
2024/02/02 03:25:20;;;;;;;5.05;3.20;;;;;;;;;;5038917;28;20025;-65
2024/02/02 03:27:46;;;;;;;4.13;2.92;;;;;;;;;;5038774;28;20029;-66
2024/02/02 03:30:13;;;;;;;4.47;2.78;;;;;;;;;;5025760;28;20539;-65
2024/02/02 03:32:41;;;;;;;5.15;3.53;;;;;;;;;;5036294;28;20081;-66
2024/02/02 03:35:07;;;;;;;5.20;3.92;;;;;;;;;;5037711;28;20024;-66
2024/02/02 03:37:33;;;;;;;4.40;3.13;;;;;;;;;;5033319;28;20061;-66
2024/02/02 03:40:00;;;;;;;4.70;3.20;;;;;;;;;;5035608;28;20024;-66
2024/02/02 03:42:26;;;;;;;5.47;3.00;;;;;;;;;;5021900;28;20109;-66
2024/02/02 03:44:52;;;;;;;4.07;2.88;;;;;;;;;;5014408;28;20047;-66
2024/02/02 03:47:18;;;;;;;4.10;3.15;;;;;;;;;;5019278;28;20071;-70
2024/02/02 03:49:45;;;;;;;3.63;3.00;;;;;;;;;;5046643;28;20061;-66
2024/02/02 03:52:11;;;;;;;4.82;3.40;;;;;;;;;;5025648;28;20555;-73
2024/02/02 03:54:37;;;;;;;5.47;3.45;;;;;;;;;;5038265;28;20021;-65
2024/02/02 03:57:03;;;;;;;5.43;3.50;;;;;;;;;;5037230;28;20703;-65
2024/02/02 03:59:30;;;;;;;5.15;3.00;;;;;;;;;;5032085;28;20052;-65
2024/02/02 04:01:56;;;;;;;3.38;2.92;;;;;;;;;;5037609;28;20403;-66
2024/02/02 04:04:22;;;;;;;3.75;2.78;;;;;;;;;;5038767;28;20107;-66
2024/02/02 04:06:50;;;;;;;4.40;3.00;;;;;;;;;;5016510;28;20049;-66
2024/02/02 04:09:17;;;;;;;3.90;2.72;;;;;;;;;;5036396;28;20033;-66
2024/02/02 04:11:44;;;;;;;4.90;3.00;;;;;;;;;;5043393;28;20025;-66
2024/02/02 04:14:10;;;;;;;2.83;2.20;;;;;;;;;;5045743;28;20461;-65
2024/02/02 04:16:36;;;;;;;2.83;2.22;;;;;;;;;;5022586;28;20033;-66
2024/02/02 04:19:03;;;;;;;1.83;1.63;;;;;;;;;;5047472;28;20017;-65
2024/02/02 04:21:29;;;;;;;2.92;1.70;;;;;;;;;;5047456;28;20071;-66
2024/02/02 04:23:56;;;;;;;2.10;1.73;;;;;;;;;;5052372;28;20045;-66
2024/02/02 04:26:22;;;;;;;1.58;1.48;;;;;;;;;;5031480;28;20022;-66
2024/02/02 04:28:48;;;;;;;1.60;1.50;;;;;;;;;;5049799;28;20079;-66
2024/02/02 04:31:14;;;;;;;1.60;1.50;;;;;;;;;;5055677;28;20444;-66
2024/02/02 04:33:40;;;;;;;1.75;1.65;;;;;;;;;;5047061;28;20023;-67
2024/02/02 04:36:07;;;;;;;1.75;1.65;;;;;;;;;;5067509;28;20052;-66
2024/02/02 04:38:33;;;;;;;1.85;1.75;;;;;;;;;;5038013;28;20115;-72
2024/02/02 04:40:59;;;;;;;1.92;1.73;;;;;;;;;;5035858;28;20055;-66
2024/02/02 04:43:25;;;;;;;1.65;1.55;;;;;;;;;;5023479;28;20025;-65
2024/02/02 04:45:52;;;;;;;1.65;1.55;;;;;;;;;;5045563;28;20041;-66
2024/02/02 04:48:18;;;;;;;1.85;1.60;;;;;;;;;;5047713;28;20029;-65
2024/02/02 04:50:45;;;;;;;1.60;1.50;;;;;;;;;;5031888;28;20299;-66
2024/02/02 04:53:13;;;;;;;1.90;1.60;;;;;;;;;;5055734;28;20017;-66
2024/02/02 04:55:39;;;;;;;1.60;1.50;;;;;;;;;;5049650;28;20029;-66
2024/02/02 04:58:05;;;;;;;1.50;1.40;;;;;;;;;;5049779;28;20035;-66
2024/02/02 05:00:31;;;;;;;1.67;1.58;;;;;;;;;;5048953;28;20033;-66
2024/02/02 05:02:57;;;;;;;1.70;1.60;;;;;;;;;;5045368;28;21091;-66
2024/02/02 05:05:24;;;;;;;1.63;1.52;;;;;;;;;;5045297;28;20496;-66
2024/02/02 05:07:50;;;;;;;1.55;1.45;;;;;;;;;;5046562;28;20492;-66
2024/02/02 05:10:17;;;;;;;2.00;1.90;;;;;;;;;;5021437;28;20016;-65
2024/02/02 05:12:43;;;;;;;2.00;1.67;;;;;;;;;;5035623;28;20211;-66
2024/02/02 05:15:09;;;;;;;1.50;1.40;;;;;;;;;;5037937;28;20503;-66
2024/02/02 05:17:35;;;;;;;1.48;1.40;;;;;;;;;;5026847;28;20061;-65
2024/02/02 05:20:05;;;;;;;1.27;1.23;;;;;;;;;;5022927;28;20029;-67
2024/02/02 05:22:31;;;;;;;1.50;1.40;;;;;;;;;;5036405;28;20538;-65
2024/02/02 05:24:58;;;;;;;1.27;1.27;;;;;;;;;;5029351;28;20032;-66
2024/02/02 05:27:24;;;;;;;1.30;1.27;;;;;;;;;;5040256;28;20443;-67
2024/02/02 05:29:50;;;;;;;1.67;1.33;;;;;;;;;;5034967;28;20052;-66
2024/02/02 05:32:16;;;;;;;1.50;1.40;;;;;;;;;;5044656;28;20047;-66
2024/02/02 05:34:43;;;;;;;1.50;1.40;;;;;;;;;;5043416;28;20531;-68
2024/02/02 05:37:09;;;;;;;1.20;1.20;;;;;;;;;;5034836;28;20068;-66
2024/02/02 05:39:35;;;;;;;3.10;1.23;;;;;;;;;;5048360;28;20036;-66
2024/02/02 05:42:02;;;;;;;1.60;1.50;;;;;;;;;;5045214;28;20026;-66
2024/02/02 05:44:28;;;;;;;1.60;1.50;;;;;;;;;;5039151;28;20124;-66
2024/02/02 05:46:54;;;;;;;1.38;1.23;;;;;;;;;;5054565;28;20035;-66
2024/02/02 05:49:20;;;;;;;1.52;1.42;;;;;;;;;;5040262;28;20028;-66
2024/02/02 05:51:46;;;;;;;1.25;1.15;;;;;;;;;;5043679;28;20022;-66
2024/02/02 05:54:13;;;;;;;2.20;1.10;;;;;;;;;;5043564;28;20072;-65
2024/02/02 05:56:39;;;;;;;1.10;1.10;;;;;;;;;;5039368;28;20025;-68
2024/02/02 05:59:05;;;;;;;1.60;1.50;;;;;;;;;;5046187;28;20053;-65
2024/02/02 06:01:31;;;;;;;1.40;1.35;;;;;;;;;;5042220;28;20037;-66
2024/02/02 06:03:59;;;;;;;1.30;1.30;;;;;;;;;;5044160;28;20112;-66
2024/02/02 06:06:25;;;;;;;1.77;1.40;;;;;;;;;;5047758;28;20028;-66
2024/02/02 06:08:51;;;;;;;1.60;1.50;;;;;;;;;;5052974;28;20191;-66
2024/02/02 06:11:17;;;;;;;1.27;1.27;;;;;;;;;;5014494;28;20025;-66
2024/02/02 06:13:43;;;;;;;1.10;1.10;;;;;;;;;;5024915;28;20362;-66
2024/02/02 06:16:10;;;;;;;1.20;1.17;;;;;;;;;;5035321;28;20052;-66
2024/02/02 06:18:36;;;;;;;3.30;1.48;;;;;;;;;;5046755;28;20147;-69
2024/02/02 06:21:02;;;;;;;2.10;1.65;;;;;;;;;;5041663;28;20059;-70
2024/02/02 06:23:29;;;;;;;1.17;1.17;;;;;;;;;;5031184;28;20076;-66
2024/02/02 06:25:55;;;;;;;1.25;1.25;;;;;;;;;;5048460;28;20074;-65
2024/02/02 06:28:21;;;;;;;1.10;1.10;;;;;;;;;;5024812;28;20021;-65
2024/02/02 06:30:49;;;;;;;1.25;1.13;;;;;;;;;;5033384;28;20056;-66
2024/02/02 06:33:16;;;;;;;2.72;1.40;;;;;;;;;;5025826;28;20075;-70
2024/02/02 06:35:44;;;;;;;1.20;1.20;;;;;;;;;;5062121;28;20460;-66
2024/02/02 06:38:11;;;;;;;1.40;1.30;;;;;;;;;;5047900;28;20457;-67
2024/02/02 06:40:37;;;;;;;1.65;1.40;;;;;;;;;;5044131;28;20033;-66
2024/02/02 06:43:07;;;;;;;1.42;1.25;;;;;;;;;;5032510;28;20041;-66
2024/02/02 06:45:33;;;;;;;1.20;1.20;;;;;;;;;;5020121;28;20029;-65
2024/02/02 06:47:59;;;;;;;1.10;1.10;;;;;;;;;;5046613;28;20056;-65
2024/02/02 06:50:26;;;;;;;1.38;1.30;;;;;;;;;;5042594;28;20121;-66
2024/02/02 06:52:52;;;;;;;1.58;1.48;;;;;;;;;;5040679;28;20108;-66
2024/02/02 06:55:18;;;;;;;1.60;1.50;;;;;;;;;;5042115;28;20036;-65
2024/02/02 06:57:44;;;;;;;1.30;1.30;;;;;;;;;;5046768;28;20017;-67
2024/02/02 07:00:15;;;;;;;1.35;1.27;;;;;;;;;;5046030;28;20496;-66
2024/02/02 07:02:42;;;;;;;1.75;1.50;;;;;;;;;;5043432;28;20071;-66
2024/02/02 07:05:10;;;;;;;1.48;1.38;;;;;;;;;;5055177;28;20115;-66
2024/02/02 07:07:36;;;;;;;1.38;1.33;;;;;;;;;;5031001;28;20468;-67
2024/02/02 07:10:04;;;;;;;1.58;1.48;;;;;;;;;;5041784;28;20277;-69
2024/02/02 07:12:49;;;;;;;1.55;1.45;;;;;;;;;;5043705;28;20022;-67
2024/02/02 07:15:18;;;;;;;1.70;1.30;;;;;;;;;;5051047;28;20028;-66
2024/02/02 07:17:46;;;;;;;1.10;1.10;;;;;;;;;;5041525;28;20272;-67
2024/02/02 07:20:38;;;;;;;1.30;1.20;;;;;;;;;;5043634;28;20035;-68
2024/02/02 07:23:04;;;;;;;1.48;1.38;;;;;;;;;;5050658;28;20497;-66
2024/02/02 07:25:40;;;;;;;1.30;1.20;;;;;;;;;;5057624;28;20037;-68
2024/02/02 07:28:06;;;;;;;1.50;1.40;;;;;;;;;;5041538;28;20107;-66
2024/02/02 07:30:45;;;;;;;1.23;1.20;;;;;;;;;;5034076;28;20052;-67
2024/02/02 07:33:30;;;;;;;1.40;1.40;;;;;;;;;;5029479;28;20017;-67
2024/02/02 07:35:59;;;;;;;1.30;1.30;;;;;;;;;;5022340;28;20440;-66
2024/02/02 07:38:26;;;;;;;1.50;1.40;;;;;;;;;;5054017;28;20025;-66
2024/02/02 07:40:56;;;;;;;2.25;1.50;;;;;;;;;;5045749;28;20056;-66
2024/02/02 07:43:22;;;;;;;1.20;1.20;;;;;;;;;;5026632;28;20033;-65
2024/02/02 07:45:49;;;;;;;1.20;1.20;;;;;;;;;;5058746;28;20056;-69
2024/02/02 07:48:15;;;;;;;1.60;1.40;;;;;;;;;;5047203;28;20476;-69
2024/02/02 07:50:41;;;;;;;2.08;1.42;;;;;;;;;;5052121;28;20135;-66
2024/02/02 07:53:08;;;;;;;1.42;1.33;;;;;;;;;;5025666;28;20017;-66
2024/02/02 07:55:39;;;;;;;1.58;1.40;;;;;;;;;;5052078;28;20028;-67
2024/02/02 07:58:11;;;;;;;1.50;1.40;;;;;;;;;;5043280;28;20612;-67
2024/02/02 08:00:37;;;;;;;1.85;1.70;;;;;;;;;;5019811;28;20025;-72
2024/02/02 08:03:03;;;;;;;1.50;1.40;;;;;;;;;;5045745;28;20795;-70
2024/02/02 08:05:30;;;;;;;1.33;1.25;;;;;;;;;;5040932;28;20053;-71
2024/02/02 08:07:56;;;;;;;1.52;1.42;;;;;;;;;;5043251;28;20140;-70
2024/02/02 08:10:22;;;;;;;3.33;1.67;;;;;;;;;;5031116;28;20028;-73
2024/02/02 08:12:48;;;;;;;1.20;1.20;;;;;;;;;;5049630;28;20473;-74
2024/02/02 08:15:14;;;;;;;1.33;1.33;;;;;;;;;;5029904;28;20029;-73
2024/02/02 08:17:43;;;;;;;1.92;1.58;;;;;;;;;;5030221;28;20021;-73
2024/02/02 08:20:10;;;;;;;1.83;1.73;;;;;;;;;;5045220;28;20075;-71
2024/02/02 08:22:36;;;;;;;1.50;1.40;;;;;;;;;;5030913;28;20037;-70
2024/02/02 08:25:02;;;;;;;4.20;1.25;;;;;;;;;;5047287;28;20029;-71
2024/02/02 08:27:29;;;;;;;2.80;1.58;;;;;;;;;;5042660;28;20040;-69
2024/02/02 08:29:55;;;;;;;1.40;1.30;;;;;;;;;;5038408;28;20040;-69
2024/02/02 08:32:22;;;;;;;1.50;1.40;;;;;;;;;;5038746;28;20318;-72
2024/02/02 08:34:49;;;;;;;1.17;1.17;;;;;;;;;;5024818;28;20043;-71
2024/02/02 08:37:15;;;;;;;0.93;0.93;;;;;;;;;;5023819;28;20033;-73
2024/02/02 08:39:42;;;;;;;1.05;1.05;;;;;;;;;;5030786;28;20032;-75
2024/02/02 08:42:09;;;;;;;0.90;0.90;;;;;;;;;;5039712;28;20135;-71
2024/02/02 08:44:35;;;;;;;1.05;1.05;;;;;;;;;;5040422;28;20441;-68
2024/02/02 08:47:01;;;;;;;3.55;1.30;;;;;;;;;;5022447;28;20047;-66
2024/02/02 08:49:55;;;;;;;1.10;1.10;;;;;;;;;;5044968;28;20033;-70
2024/02/02 08:52:51;;;;;;;7.65;1.45;;;;;;;;;;5044546;28;20025;-68
2024/02/02 08:55:31;;;;;;;2.55;1.35;;;;;;;;;;5021762;28;20455;-72
2024/02/02 08:58:08;;;;;;;4.45;1.67;;;;;;;;;;5041280;28;20028;-69
2024/02/02 09:00:41;;;;;;;1.67;1.58;;;;;;;;;;5045593;28;20029;-68
2024/02/02 09:03:20;;;;;;;2.67;1.40;;;;;;;;;;5025955;28;20038;-69
2024/02/02 09:05:50;;;;;;;1.55;1.45;;;;;;;;;;5046497;28;20079;-71
2024/02/02 09:08:26;;;;;;;1.30;1.20;;;;;;;;;;5028732;28;20072;-72
2024/02/02 09:10:52;;;;;;;;;;;;;;;;;;5025171;28;20527;-71
2024/02/02 09:13:24;;;;;;;1.08;1.08;;;;;;;;;;5043812;28;20004;-72
2024/02/02 09:15:50;;;;;;;1.23;1.23;;;;;;;;;;5043040;28;20087;-67
2024/02/02 09:18:36;;;;;;;1.00;1.00;;;;;;;;;;5045285;28;20026;-69
2024/02/02 09:21:04;;;;;;;5.30;1.50;;;;;;;;;;5039816;28;20041;-65
2024/02/02 09:23:32;;;;;;;1.45;1.35;;;;;;;;;;5042443;28;20032;-67
2024/02/02 09:25:58;;;;;;;1.35;1.27;;;;;;;;;;5041204;28;20583;-67
2024/02/02 09:28:29;;;;;;;1.17;1.17;;;;;;;;;;5047719;28;20033;-65
2024/02/02 09:30:56;;;;;;;1.27;1.27;;;;;;;;;;5045047;28;20419;-67
2024/02/02 09:33:46;;;;;;;1.00;1.00;;;;;;;;;;5046320;28;20025;-65
2024/02/02 09:36:12;;;;;;;1.25;1.15;;;;;;;;;;5028334;28;20608;-66
2024/02/02 09:38:39;;;;;;;1.00;1.00;;;;;;;;;;5026049;28;20079;-68
2024/02/02 09:41:05;;;;;;;2.53;2.33;;;;;;;;;;5042069;28;20060;-69
2024/02/02 09:43:50;;;;;;;1.20;1.20;;;;;;;;;;5048978;28;20287;-67
2024/02/02 09:46:20;;;;;;;1.02;1.02;;;;;;;;;;5044865;28;20248;-67
2024/02/02 09:48:54;;;;;;;1.10;1.10;;;;;;;;;;5025372;28;20029;-70
2024/02/02 09:51:38;;;;;;;1.60;1.27;;;;;;;;;;5046613;28;20036;-71
2024/02/02 09:54:28;;;;;;;1.10;1.10;;;;;;;;;;5024644;28;20112;-67
2024/02/02 09:57:03;;;;;;;1.08;1.08;;;;;;;;;;5030520;28;20898;-67
2024/02/02 09:59:47;;;;;;;1.00;1.00;;;;;;;;;;5044579;28;20115;-68
2024/02/02 10:02:17;;;;;;;1.40;1.30;;;;;;;;;;5043736;28;20053;-66
2024/02/02 10:05:02;;;;;;;1.38;1.30;;;;;;;;;;5043720;28;20339;-66
2024/02/02 10:07:40;;;;;;;1.08;1.08;;;;;;;;;;5042048;28;20107;-65
2024/02/02 10:10:15;;;;;;;1.52;1.10;;;;;;;;;;5041824;28;20028;-63
2024/02/02 10:12:57;;;;;;;1.10;1.10;;;;;;;;;;5044613;28;20056;-67
2024/02/02 10:15:26;;;;;;;1.25;1.25;;;;;;;;;;5041979;28;20032;-68
2024/02/02 10:18:02;;;;;;;1.13;1.10;;;;;;;;;;5038460;28;20037;-66
2024/02/02 10:20:37;;;;;;;1.35;1.25;;;;;;;;;;5042519;28;20033;-70
2024/02/02 10:23:23;;;;;;;1.25;1.20;;;;;;;;;;5026836;28;20387;-69
2024/02/02 10:26:16;;;;;;;1.05;1.05;;;;;;;;;;5040680;28;20037;-71
2024/02/02 10:28:42;;;;;;;1.35;1.25;;;;;;;;;;5045752;28;20484;-64
2024/02/02 10:31:32;;;;;;;1.45;1.10;;;;;;;;;;5042327;28;20025;-64
2024/02/02 10:34:01;;;;;;;1.30;1.20;;;;;;;;;;5040051;28;20526;-65
2024/02/02 10:36:30;;;;;;;1.00;1.00;;;;;;;;;;5044304;28;20065;-63
2024/02/02 10:39:11;;;;;;;1.30;1.30;;;;;;;;;;5027678;28;20488;-64
2024/02/02 10:41:40;;;;;;;1.20;1.20;;;;;;;;;;5043878;28;20444;-64
2024/02/02 10:44:13;;;;;;;1.20;1.20;;;;;;;;;;5033314;28;20100;-64
2024/02/02 10:46:45;;;;;;;1.23;1.23;;;;;;;;;;5045776;28;20118;-65
2024/02/02 10:49:24;;;;;;;1.23;1.23;;;;;;;;;;5024886;28;20039;-64
2024/02/02 10:51:50;;;;;;;1.02;1.02;;;;;;;;;;5042903;28;20025;-63
2024/02/02 10:54:22;;;;;;;1.20;1.20;;;;;;;;;;5038158;28;20585;-64
2024/02/02 10:57:04;;;;;;;0.90;0.90;;;;;;;;;;5047177;28;20037;-63
2024/02/02 10:59:38;;;;;;;0.98;0.98;;;;;;;;;;5041290;28;20394;-63
2024/02/02 11:02:23;;;;;;;1.00;1.00;;;;;;;;;;5023597;28;20076;-64
2024/02/02 11:04:50;;;;;;;1.23;1.13;;;;;;;;;;5047016;28;20395;-64
2024/02/02 11:07:22;;;;;;;1.00;1.00;;;;;;;;;;5041332;28;20496;-63
2024/02/02 11:09:53;;;;;;;1.00;1.00;;;;;;;;;;5025111;28;20336;-66
2024/02/02 11:12:30;;;;;;;1.40;1.27;;;;;;;;;;5040723;28;21233;-70
2024/02/02 11:15:21;;;;;;;1.10;1.10;;;;;;;;;;5043088;28;20225;-66
2024/02/02 11:18:05;;;;;;;0.90;0.90;;;;;;;;;;5042173;28;20349;-67
2024/02/02 11:20:35;;;;;;;1.10;1.10;;;;;;;;;;5028293;28;20033;-65
2024/02/02 11:23:09;;;;;;;1.23;1.23;;;;;;;;;;5037668;28;20037;-65
2024/02/02 11:25:50;;;;;;;1.35;1.13;;;;;;;;;;5025231;28;20029;-64
2024/02/02 11:28:19;;;;;;;1.10;1.10;;;;;;;;;;5043521;28;20093;-66
2024/02/02 11:30:51;;;;;;;1.08;1.08;;;;;;;;;;5045366;28;20033;-68
2024/02/02 11:33:24;;;;;;;1.02;1.02;;;;;;;;;;5023967;28;20281;-69
2024/02/02 11:35:53;;;;;;;1.00;1.00;;;;;;;;;;5032854;28;20021;-68
2024/02/02 11:38:42;;;;;;;0.98;0.98;;;;;;;;;;5031053;28;20044;-68
2024/02/02 11:41:16;;;;;;;1.67;1.52;;;;;;;;;;5027885;28;20078;-66
2024/02/02 11:43:44;;;;;;;0.90;0.90;;;;;;;;;;5045425;28;20051;-65
2024/02/02 11:46:11;;;;;;;3.50;1.33;;;;;;;;;;5041813;28;20070;-67
2024/02/02 11:48:43;;;;;;;1.27;1.27;;;;;;;;;;5026585;28;20025;-66
2024/02/02 11:51:10;;;;;;;1.20;1.20;;;;;;;;;;5040063;28;20467;-67
2024/02/02 11:53:58;;;;;;;1.17;1.13;;;;;;;;;;5044887;28;20091;-65
2024/02/02 11:56:28;;;;;;;1.20;1.20;;;;;;;;;;5021138;28;20032;-64
2024/02/02 11:59:08;;;;;;;0.90;0.90;;;;;;;;;;5042618;28;20029;-67
2024/02/02 12:02:02;;;;;;;1.05;1.05;;;;;;;;;;5041998;28;20032;-69
2024/02/02 12:04:43;;;;;;;2.28;1.58;;;;;;;;;;5043539;28;20043;-68
2024/02/02 12:07:26;;;;;;;1.02;1.02;;;;;;;;;;5043745;28;20033;-68
2024/02/02 12:09:58;;;;;;;1.25;1.25;;;;;;;;;;5043590;28;20033;-68
2024/02/02 12:12:43;;;;;;;1.15;1.15;;;;;;;;;;5044420;28;20076;-69
2024/02/02 12:15:10;;;;;;;1.27;1.23;;;;;;;;;;5021627;28;20025;-67
2024/02/02 12:17:36;;;;;;;17.63;9.00;;;;;;;;;;5039017;28;20051;-68
2024/02/02 12:20:09;;;;;;;4.22;1.95;;;;;;;;;;5043423;28;20029;-67
2024/02/02 12:22:35;;;;;;;1.90;1.63;;;;;;;;;;5039688;28;20037;-68
2024/02/02 12:25:04;;;;;;;2.00;1.90;;;;;;;;;;5039978;28;20057;-68
2024/02/02 12:27:35;;;;;;;2.03;1.88;;;;;;;;;;5021361;28;20063;-69
2024/02/02 12:30:07;;;;;;;3.38;2.10;;;;;;;;;;5021156;28;20044;-66
2024/02/02 12:32:34;;;;;;;1.42;1.33;;;;;;;;;;5039099;28;20045;-68
2024/02/02 12:35:05;;;;;;;1.27;1.27;;;;;;;;;;5020776;28;20033;-67
2024/02/02 12:37:45;;;;;;;1.00;1.00;;;;;;;;;;5040302;28;20108;-67
2024/02/02 12:40:12;;;;;;;1.50;1.40;;;;;;;;;;5046465;28;20049;-67
2024/02/02 12:42:59;;;;;;;1.40;1.30;;;;;;;;;;5027116;28;20040;-67
2024/02/02 12:45:31;;;;;;;1.27;1.20;;;;;;;;;;5049344;28;20102;-68
2024/02/02 12:47:59;;;;;;;1.30;1.20;;;;;;;;;;5023630;28;20032;-69
2024/02/02 12:50:26;;;;;;;1.45;1.17;;;;;;;;;;5034477;28;20052;-67
2024/02/02 12:52:53;;;;;;;1.17;1.10;;;;;;;;;;5042716;28;20021;-65
2024/02/02 12:55:23;;;;;;;1.35;1.25;;;;;;;;;;5023750;28;20027;-65
2024/02/02 12:57:50;;;;;;;1.52;1.42;;;;;;;;;;5008925;28;20040;-64
2024/02/02 13:00:18;;;;;;;1.30;1.30;;;;;;;;;;5044154;28;20499;-64
2024/02/02 13:02:45;;;;;;;1.40;1.35;;;;;;;;;;5025990;28;20519;-66
2024/02/02 13:05:12;;;;;;;1.25;1.15;;;;;;;;;;5047791;28;20021;-66
2024/02/02 13:07:42;;;;;;;5.32;1.67;;;;;;;;;;5043872;28;20052;-66
2024/02/02 13:10:10;;;;;;;1.40;1.30;;;;;;;;;;5031955;28;20029;-62
2024/02/02 13:12:44;;;;;;;1.77;1.45;;;;;;;;;;5041568;28;20147;-64
2024/02/02 13:15:11;;;;;;;1.67;1.58;;;;;;;;;;5044118;28;20025;-63
2024/02/02 13:17:37;;;;;;;1.15;1.15;;;;;;;;;;5047898;28;20011;-62
2024/02/02 13:20:15;;;;;;;1.67;1.58;;;;;;;;;;5030357;28;20083;-63
2024/02/02 13:22:50;;;;;;;0.90;0.90;;;;;;;;;;5021467;28;20056;-62
2024/02/02 13:25:24;;;;;;;1.23;1.20;;;;;;;;;;5037980;28;20074;-64
2024/02/02 13:27:54;;;;;;;1.30;1.27;;;;;;;;;;5037543;28;20037;-65
2024/02/02 13:30:24;;;;;;;1.23;1.23;;;;;;;;;;5042446;28;20041;-64
2024/02/02 13:32:52;;;;;;;1.20;1.00;;;;;;;;;;5044801;28;20035;-64
2024/02/02 13:35:23;;;;;;;1.17;1.15;;;;;;;;;;5037691;28;20496;-64
2024/02/02 13:37:52;;;;;;;1.20;1.20;;;;;;;;;;5041160;28;20039;-64
2024/02/02 13:40:27;;;;;;;1.00;1.00;;;;;;;;;;5040029;28;20674;-66
2024/02/02 13:42:55;;;;;;;1.45;1.35;;;;;;;;;;5021341;28;20044;-64
2024/02/02 13:45:22;;;;;;;1.20;1.20;;;;;;;;;;5041510;28;20520;-64
2024/02/02 13:47:59;;;;;;;1.15;1.15;;;;;;;;;;5022815;28;20222;-66
2024/02/02 13:50:30;;;;;;;1.75;1.65;;;;;;;;;;5021548;28;20048;-64
2024/02/02 13:52:59;;;;;;;1.10;1.10;;;;;;;;;;5043829;28;20404;-63
2024/02/02 13:55:30;;;;;;;1.52;1.42;;;;;;;;;;5025034;28;20032;-68
2024/02/02 13:57:57;;;;;;;1.13;1.13;;;;;;;;;;5044953;28;20026;-65
2024/02/02 14:00:24;;;;;;;1.00;1.00;;;;;;;;;;5034368;28;20032;-66
2024/02/02 14:02:50;;;;;;;1.00;1.00;;;;;;;;;;5022311;28;20025;-66
2024/02/02 14:05:17;;;;;;;3.40;2.92;;;;;;;;;;5045331;28;20111;-66
2024/02/02 14:07:56;;;;;;;1.20;1.20;;;;;;;;;;5039689;28;20060;-65
2024/02/02 14:10:22;;;;;;;2.03;1.25;;;;;;;;;;5045210;28;20430;-64
2024/02/02 14:12:49;;;;;;;1.38;1.30;;;;;;;;;;5040079;28;20088;-65
2024/02/02 14:15:15;;;;;;;1.10;1.10;;;;;;;;;;5043079;28;20520;-66
2024/02/02 14:17:41;;;;;;;1.50;1.40;;;;;;;;;;5036067;28;20053;-67
2024/02/02 14:20:11;;;;;;;1.33;1.30;;;;;;;;;;5037796;28;20025;-67
2024/02/02 14:22:37;;;;;;;1.45;1.35;;;;;;;;;;5018649;28;20119;-66
2024/02/02 14:25:03;;;;;;;1.55;1.45;;;;;;;;;;5020776;28;20025;-67
2024/02/02 14:27:33;;;;;;;1.48;1.33;;;;;;;;;;5034258;28;20025;-67
2024/02/02 14:30:07;;;;;;;1.10;1.10;;;;;;;;;;5021737;28;20794;-66
2024/02/02 14:32:36;;;;;;;1.65;1.48;;;;;;;;;;5041313;28;20029;-65
2024/02/02 14:35:03;;;;;;;2.33;1.40;;;;;;;;;;5022264;28;20037;-65
2024/02/02 14:37:40;;;;;;;1.50;1.40;;;;;;;;;;5041623;28;20021;-65
2024/02/02 14:40:11;;;;;;;1.60;1.50;;;;;;;;;;5021653;28;20125;-66
2024/02/02 14:42:37;;;;;;;2.42;1.60;;;;;;;;;;5026559;28;20040;-65
2024/02/02 14:45:05;;;;;;;1.48;1.25;;;;;;;;;;5041961;28;20033;-65
2024/02/02 14:47:36;;;;;;;3.60;1.70;;;;;;;;;;5034341;28;20029;-64
2024/02/02 14:50:02;;;;;;;1.65;1.30;;;;;;;;;;5038862;28;20033;-65
2024/02/02 14:52:28;;;;;;;2.20;1.25;;;;;;;;;;5041527;28;20697;-69
2024/02/02 14:54:58;;;;;;;5.47;1.20;;;;;;;;;;5036664;28;20104;-66
2024/02/02 14:57:24;;;;;;;1.20;1.20;;;;;;;;;;5043815;28;20040;-74